createdAt,value
2022-08-31T00:00:12.499Z,5.60
2022-08-31T00:02:57.947Z,5.10
2022-08-31T00:05:24.588Z,5.18
2022-08-31T00:07:52.731Z,5.47
2022-08-31T00:10:32.011Z,5.80
2022-08-31T00:13:00.445Z,5.22
2022-08-31T00:15:30.117Z,5.68
2022-08-31T00:17:57.725Z,5.70
2022-08-31T00:20:34.041Z,6.35
2022-08-31T00:23:12.536Z,6.00
2022-08-31T00:25:42.552Z,5.38
2022-08-31T00:28:10.583Z,5.63
2022-08-31T00:30:37.776Z,5.03
2022-08-31T00:33:05.460Z,5.65
2022-08-31T00:35:36.081Z,6.05
2022-08-31T00:38:06.155Z,5.40
2022-08-31T00:40:33.743Z,5.70
2022-08-31T00:43:11.483Z,5.47
2022-08-31T00:45:38.161Z,5.55
2022-08-31T00:48:04.852Z,5.60
2022-08-31T00:50:31.547Z,5.90
2022-08-31T00:53:01.132Z,6.40
2022-08-31T00:55:35.399Z,5.75
2022-08-31T00:58:06.621Z,6.38
2022-08-31T01:00:35.307Z,6.32
2022-08-31T01:03:05.648Z,6.75
2022-08-31T01:05:33.268Z,6.22
2022-08-31T01:08:01.048Z,5.78
2022-08-31T01:10:32.098Z,5.93
2022-08-31T01:13:00.343Z,5.85
2022-08-31T01:15:30.174Z,6.40
2022-08-31T01:18:00.678Z,5.80
2022-08-31T01:20:54.353Z,6.18
2022-08-31T01:23:26.675Z,5.28
2022-08-31T01:25:57.748Z,6.50
2022-08-31T01:28:24.959Z,6.18
2022-08-31T01:31:07.819Z,6.53
2022-08-31T01:33:37.078Z,6.57
2022-08-31T01:36:05.054Z,5.57
2022-08-31T01:38:33.214Z,6.07
2022-08-31T01:41:03.885Z,5.97
2022-08-31T01:43:34.012Z,5.75
2022-08-31T01:46:12.692Z,5.60
2022-08-31T01:48:42.404Z,5.53
2022-08-31T01:51:12.431Z,6.10
2022-08-31T01:53:42.578Z,5.95
2022-08-31T01:56:29.532Z,6.10
2022-08-31T01:58:56.452Z,5.68
2022-08-31T02:01:33.450Z,5.90
2022-08-31T02:04:02.857Z,5.65
2022-08-31T02:06:29.632Z,7.00
2022-08-31T02:08:56.514Z,6.32
2022-08-31T02:11:23.120Z,6.65
2022-08-31T02:13:49.725Z,7.20
2022-08-31T02:16:16.702Z,6.82
2022-08-31T02:18:43.363Z,7.05
2022-08-31T02:21:09.943Z,6.53
2022-08-31T02:23:36.523Z,7.18
2022-08-31T02:26:03.268Z,6.90
2022-08-31T02:28:30.095Z,6.40
2022-08-31T02:30:56.717Z,6.72
2022-08-31T02:33:25.085Z,6.57
2022-08-31T02:35:53.818Z,6.80
2022-08-31T02:38:22.949Z,6.60
2022-08-31T02:40:51.396Z,7.72
2022-08-31T02:43:24.989Z,6.38
2022-08-31T02:45:53.428Z,6.78
2022-08-31T02:48:21.449Z,6.93
2022-08-31T02:50:50.706Z,6.65
2022-08-31T02:53:20.615Z,6.18
2022-08-31T02:55:47.921Z,5.80
2022-08-31T02:58:18.591Z,6.38
2022-08-31T03:00:48.097Z,7.28
2022-08-31T03:03:15.695Z,6.78
2022-08-31T03:05:42.383Z,6.32
2022-08-31T03:08:09.110Z,6.43
2022-08-31T03:10:35.967Z,7.13
2022-08-31T03:13:03.067Z,7.35
2022-08-31T03:15:29.906Z,7.30
2022-08-31T03:17:57.510Z,6.95
2022-08-31T03:20:27.092Z,6.70
2022-08-31T03:22:54.001Z,7.35
2022-08-31T03:25:21.228Z,7.13
2022-08-31T03:27:47.928Z,6.95
2022-08-31T03:30:19.298Z,7.57
2022-08-31T03:32:46.118Z,7.35
2022-08-31T03:35:13.181Z,6.95
2022-08-31T03:37:39.828Z,7.13
2022-08-31T03:40:08.379Z,7.43
2022-08-31T03:42:35.742Z,7.43
2022-08-31T03:45:02.868Z,6.63
2022-08-31T03:47:29.556Z,6.57
2022-08-31T03:49:58.018Z,6.72
2022-08-31T03:52:24.787Z,7.22
2022-08-31T03:54:51.379Z,6.80
2022-08-31T03:57:17.984Z,6.63
2022-08-31T03:59:44.710Z,6.63
2022-08-31T04:02:11.341Z,6.65
2022-08-31T04:04:37.971Z,6.97
2022-08-31T04:07:04.585Z,7.38
2022-08-31T04:09:31.284Z,7.30
2022-08-31T04:11:57.851Z,7.35
2022-08-31T04:14:24.491Z,6.40
2022-08-31T04:16:51.077Z,6.55
2022-08-31T04:19:17.661Z,5.95
2022-08-31T04:21:44.632Z,6.50
2022-08-31T04:24:12.157Z,6.57
2022-08-31T04:26:40.979Z,6.47
2022-08-31T04:29:12.780Z,6.95
2022-08-31T04:31:40.142Z,6.32
2022-08-31T04:34:06.793Z,6.63
2022-08-31T04:36:33.716Z,6.32
2022-08-31T04:39:03.155Z,7.30
2022-08-31T04:41:32.334Z,6.22
2022-08-31T04:44:00.843Z,6.72
2022-08-31T04:46:28.616Z,6.93
2022-08-31T04:48:56.299Z,6.50
2022-08-31T04:51:31.935Z,6.60
2022-08-31T04:53:58.569Z,7.10
2022-08-31T04:56:28.170Z,6.55
2022-08-31T04:59:03.991Z,5.82
2022-08-31T05:01:38.649Z,5.95
2022-08-31T05:04:12.164Z,6.43
2022-08-31T05:06:41.246Z,6.30
2022-08-31T05:09:13.690Z,7.03
2022-08-31T05:11:40.949Z,6.50
2022-08-31T05:14:08.389Z,6.65
2022-08-31T05:16:37.684Z,6.78
2022-08-31T05:19:04.702Z,5.90
2022-08-31T05:21:35.977Z,6.85
2022-08-31T05:24:12.763Z,7.00
2022-08-31T05:26:44.455Z,6.72
2022-08-31T05:29:14.361Z,5.93
2022-08-31T05:31:42.676Z,7.25
2022-08-31T05:34:12.584Z,6.47
2022-08-31T05:36:41.678Z,6.20
2022-08-31T05:39:11.956Z,5.75
2022-08-31T05:41:40.773Z,6.60
2022-08-31T05:44:08.357Z,6.47
2022-08-31T05:46:35.673Z,6.50
2022-08-31T05:49:02.680Z,6.68
2022-08-31T05:51:29.468Z,6.40
2022-08-31T05:53:58.880Z,6.75
2022-08-31T05:56:26.494Z,7.03
2022-08-31T05:58:54.961Z,6.93
2022-08-31T06:01:30.061Z,6.68
2022-08-31T06:03:57.828Z,6.35
2022-08-31T06:06:25.446Z,6.07
2022-08-31T06:08:52.786Z,6.70
2022-08-31T06:11:28.798Z,6.75
2022-08-31T06:13:58.279Z,6.32
2022-08-31T06:16:26.295Z,5.32
2022-08-31T06:18:55.718Z,17.02
2022-08-31T06:21:26.701Z,7.15
2022-08-31T06:23:57.195Z,6.32
2022-08-31T06:26:27.062Z,6.07
2022-08-31T06:28:56.922Z,5.40
2022-08-31T06:31:30.648Z,5.72
2022-08-31T06:33:58.589Z,5.15
2022-08-31T06:36:28.303Z,5.10
2022-08-31T06:38:58.736Z,5.00
2022-08-31T06:41:28.250Z,5.15
2022-08-31T06:43:55.951Z,5.00
2022-08-31T06:46:23.899Z,4.70
2022-08-31T06:48:54.133Z,5.15
2022-08-31T06:51:20.961Z,4.63
2022-08-31T06:53:52.212Z,5.03
2022-08-31T06:56:25.343Z,4.43
2022-08-31T06:58:53.697Z,4.18
2022-08-31T07:01:35.261Z,4.18
2022-08-31T07:04:07.460Z,4.35
2022-08-31T07:06:42.721Z,4.68
2022-08-31T07:09:11.973Z,3.97
2022-08-31T07:11:44.767Z,4.78
2022-08-31T07:14:14.619Z,5.40
2022-08-31T07:16:42.982Z,4.75
2022-08-31T07:19:11.771Z,3.85
2022-08-31T07:21:47.742Z,3.97
2022-08-31T07:24:18.148Z,4.18
2022-08-31T07:26:49.970Z,4.32
2022-08-31T07:29:18.918Z,4.32
2022-08-31T07:31:48.827Z,4.43
2022-08-31T07:34:20.981Z,4.78
2022-08-31T07:37:07.146Z,4.53
2022-08-31T07:39:53.596Z,4.30
2022-08-31T07:42:28.697Z,4.10
2022-08-31T07:47:28.368Z,4.45
2022-08-31T07:49:58.571Z,4.20
2022-08-31T07:52:28.400Z,4.47
2022-08-31T07:55:06.527Z,4.57
2022-08-31T07:57:42.314Z,4.57
2022-08-31T08:00:10.110Z,4.45
2022-08-31T08:02:38.480Z,4.88
2022-08-31T08:05:07.539Z,4.47
2022-08-31T08:07:35.956Z,4.68
2022-08-31T08:10:06.243Z,4.30
2022-08-31T08:12:36.363Z,3.85
2022-08-31T08:15:06.806Z,4.35
2022-08-31T08:17:33.679Z,4.22
2022-08-31T08:20:00.549Z,4.13
2022-08-31T08:22:50.791Z,4.70
2022-08-31T08:25:14.609Z,4.30
2022-08-31T08:27:43.752Z,4.85
2022-08-31T08:30:16.442Z,4.40
2022-08-31T08:32:43.538Z,4.35
2022-08-31T08:35:12.383Z,4.45
2022-08-31T08:37:57.811Z,4.43
2022-08-31T08:40:43.214Z,4.30
2022-08-31T08:43:14.694Z,4.78
2022-08-31T08:45:43.220Z,4.40
2022-08-31T08:48:14.092Z,4.43
2022-08-31T08:50:41.923Z,4.35
2022-08-31T08:53:12.595Z,4.80
2022-08-31T08:55:42.157Z,4.53
2022-08-31T08:58:13.513Z,4.47
2022-08-31T09:00:46.536Z,3.90
2022-08-31T09:03:22.956Z,3.85
2022-08-31T09:06:16.257Z,3.95
2022-08-31T09:09:11.251Z,4.05
2022-08-31T09:12:12.559Z,3.88
2022-08-31T09:15:28.434Z,4.38
2022-08-31T09:18:03.442Z,4.60
2022-08-31T09:20:33.751Z,3.65
2022-08-31T09:23:00.982Z,4.05
2022-08-31T09:25:44.965Z,4.10
2022-08-31T09:28:15.257Z,3.65
2022-08-31T09:30:44.847Z,3.65
2022-08-31T09:33:27.246Z,3.90
2022-08-31T09:36:13.758Z,3.63
2022-08-31T09:38:42.174Z,3.80
2022-08-31T09:41:42.173Z,4.03
2022-08-31T09:44:32.131Z,3.65
2022-08-31T09:47:02.827Z,3.17
2022-08-31T09:49:38.592Z,3.40
2022-08-31T09:52:20.578Z,3.10
2022-08-31T09:55:14.181Z,3.90
2022-08-31T09:57:53.195Z,3.72
2022-08-31T10:00:34.435Z,3.33
2022-08-31T10:03:24.400Z,3.40
2022-08-31T10:05:54.646Z,3.72
2022-08-31T10:08:28.065Z,3.88
2022-08-31T10:10:58.706Z,3.70
2022-08-31T10:13:39.363Z,3.55
2022-08-31T10:16:17.157Z,3.42
2022-08-31T10:19:00.024Z,2.65
2022-08-31T10:21:35.845Z,3.17
2022-08-31T10:24:33.409Z,2.97
2022-08-31T10:27:03.870Z,3.20
2022-08-31T10:29:44.254Z,2.92
2022-08-31T10:32:40.620Z,2.70
2022-08-31T10:35:22.283Z,2.53
2022-08-31T10:38:14.788Z,2.53
2022-08-31T10:40:51.715Z,2.65
2022-08-31T10:43:26.880Z,2.60
2022-08-31T10:45:59.774Z,2.38
2022-08-31T10:48:27.554Z,3.22
2022-08-31T10:51:05.861Z,2.80
2022-08-31T10:53:52.329Z,2.70
2022-08-31T10:56:24.144Z,2.42
2022-08-31T10:59:14.114Z,2.50
2022-08-31T11:01:55.886Z,2.00
2022-08-31T11:04:29.590Z,2.60
2022-08-31T11:07:19.058Z,2.10
2022-08-31T11:10:03.891Z,2.60
2022-08-31T11:12:40.957Z,2.55
2022-08-31T11:15:24.108Z,2.22
2022-08-31T11:18:05.802Z,2.10
2022-08-31T11:21:00.389Z,2.60
2022-08-31T11:23:45.017Z,2.40
2022-08-31T11:26:36.384Z,2.20
2022-08-31T11:29:14.471Z,2.40
2022-08-31T11:31:41.644Z,2.40
2022-08-31T11:34:17.467Z,2.55
2022-08-31T11:36:57.528Z,2.90
2022-08-31T11:39:46.145Z,2.63
2022-08-31T11:42:18.744Z,2.47
2022-08-31T11:44:59.419Z,2.78
2022-08-31T11:47:29.587Z,2.42
2022-08-31T11:50:05.577Z,2.42
2022-08-31T11:52:41.155Z,2.22
2022-08-31T11:55:16.615Z,2.28
2022-08-31T11:58:10.123Z,2.15
2022-08-31T12:00:52.186Z,2.30
2022-08-31T12:03:50.765Z,2.15
2022-08-31T12:06:29.670Z,2.20
2022-08-31T12:09:02.357Z,2.10
2022-08-31T12:11:50.203Z,2.25
2022-08-31T12:14:33.084Z,2.10
2022-08-31T12:17:28.117Z,1.92
2022-08-31T12:23:32.028Z,2.00
2022-08-31T12:26:01.522Z,1.83
2022-08-31T12:28:52.514Z,1.83
2022-08-31T12:31:19.288Z,2.10
2022-08-31T12:34:01.653Z,2.15
2022-08-31T12:36:31.101Z,2.22
2022-08-31T12:39:25.890Z,2.45
2022-08-31T12:41:56.578Z,2.10
2022-08-31T12:44:28.466Z,2.20
2022-08-31T12:47:34.379Z,2.08
2022-08-31T12:50:00.945Z,1.80
2022-08-31T12:53:09.081Z,2.03
2022-08-31T12:56:04.487Z,1.60
2022-08-31T12:59:01.779Z,2.03
2022-08-31T13:01:28.663Z,1.80
2022-08-31T13:03:59.754Z,1.92
2022-08-31T13:06:32.549Z,1.90
2022-08-31T13:09:01.573Z,2.15
2022-08-31T13:11:43.845Z,1.80
2022-08-31T13:14:20.786Z,2.40
2022-08-31T13:16:57.843Z,2.50
2022-08-31T13:19:29.469Z,2.30
2022-08-31T13:22:05.675Z,2.05
2022-08-31T13:24:41.409Z,2.15
2022-08-31T13:27:23.269Z,2.30
2022-08-31T13:29:51.318Z,2.30
2022-08-31T13:32:33.889Z,2.60
2022-08-31T13:35:04.342Z,2.42
2022-08-31T13:37:37.866Z,2.38
2022-08-31T13:40:10.081Z,2.63
2022-08-31T13:42:45.692Z,2.35
2022-08-31T13:45:35.301Z,2.58
2022-08-31T13:48:10.400Z,2.85
2022-08-31T13:50:56.216Z,2.90
2022-08-31T13:53:46.578Z,3.30
2022-08-31T13:56:50.320Z,3.03
2022-08-31T13:59:26.633Z,2.63
2022-08-31T14:01:53.249Z,3.35
2022-08-31T14:04:48.831Z,3.15
2022-08-31T14:07:51.859Z,2.47
2022-08-31T14:10:26.430Z,2.00
2022-08-31T14:13:01.901Z,2.10
2022-08-31T14:15:52.445Z,1.98
2022-08-31T14:18:37.849Z,1.80
2022-08-31T14:21:24.136Z,1.92
2022-08-31T14:24:02.977Z,1.70
2022-08-31T14:26:36.899Z,1.77
2022-08-31T14:29:12.379Z,1.80
2022-08-31T14:31:55.031Z,1.70
2022-08-31T14:34:32.277Z,1.77
2022-08-31T14:37:11.384Z,1.55
2022-08-31T14:39:43.227Z,1.83
2022-08-31T14:42:17.311Z,1.90
2022-08-31T14:44:48.241Z,1.52
2022-08-31T14:47:14.879Z,1.27
2022-08-31T14:49:45.409Z,1.58
2022-08-31T14:52:13.094Z,1.40
2022-08-31T14:54:41.029Z,1.45
2022-08-31T14:57:17.691Z,1.30
2022-08-31T14:59:46.876Z,1.98
2022-08-31T15:02:21.184Z,1.40
2022-08-31T15:04:48.711Z,1.92
2022-08-31T15:07:16.916Z,1.60
2022-08-31T15:09:46.831Z,1.60
2022-08-31T15:12:15.430Z,1.90
2022-08-31T15:14:44.941Z,1.50
2022-08-31T15:17:18.672Z,1.88
2022-08-31T15:19:48.147Z,1.73
2022-08-31T15:22:15.962Z,1.92
2022-08-31T15:24:44.949Z,1.70
2022-08-31T15:27:13.616Z,2.10
2022-08-31T15:29:45.536Z,1.77
2022-08-31T15:32:16.872Z,1.42
2022-08-31T15:34:56.271Z,1.60
2022-08-31T15:37:23.957Z,1.50
2022-08-31T15:39:51.402Z,1.50
2022-08-31T15:42:23.532Z,2.25
2022-08-31T15:44:58.291Z,1.50
2022-08-31T15:47:46.861Z,1.55
2022-08-31T15:50:13.986Z,2.20
2022-08-31T15:52:43.914Z,1.45
2022-08-31T15:55:21.738Z,2.20
2022-08-31T15:57:48.545Z,1.33
2022-08-31T16:00:15.603Z,1.70
2022-08-31T16:02:43.224Z,1.58
2022-08-31T16:05:11.725Z,2.00
2022-08-31T16:07:39.348Z,1.25
2022-08-31T16:10:19.791Z,1.77
2022-08-31T16:12:47.718Z,1.42
2022-08-31T16:15:15.788Z,1.90
2022-08-31T16:17:42.905Z,1.80
2022-08-31T16:20:12.399Z,1.90
2022-08-31T16:22:42.906Z,1.65
2022-08-31T16:25:13.063Z,1.83
2022-08-31T16:27:40.902Z,2.55
2022-08-31T16:30:10.234Z,3.25
2022-08-31T16:32:37.103Z,2.83
2022-08-31T16:35:05.660Z,2.30
2022-08-31T16:37:33.680Z,1.80
2022-08-31T16:40:00.446Z,1.27
2022-08-31T16:42:27.322Z,2.25
2022-08-31T16:44:59.880Z,1.90
2022-08-31T16:49:56.438Z,2.35
2022-08-31T16:52:26.761Z,1.80
2022-08-31T16:54:56.973Z,1.98
2022-08-31T16:57:27.305Z,2.08
2022-08-31T16:59:55.668Z,1.85
2022-08-31T17:02:23.411Z,1.52
2022-08-31T17:04:53.313Z,1.67
2022-08-31T17:07:22.652Z,1.73
2022-08-31T17:09:49.342Z,1.70
2022-08-31T17:12:19.316Z,2.15
2022-08-31T17:14:51.381Z,2.00
2022-08-31T17:17:21.750Z,2.00
2022-08-31T17:19:49.022Z,4.85
2022-08-31T17:22:23.268Z,2.58
2022-08-31T17:24:52.226Z,2.00
2022-08-31T17:27:20.701Z,2.17
2022-08-31T17:29:49.857Z,1.65
2022-08-31T17:32:19.429Z,1.60
2022-08-31T17:34:51.618Z,1.88
2022-08-31T17:37:23.022Z,2.03
2022-08-31T17:39:52.559Z,2.00
2022-08-31T17:42:21.881Z,2.03
2022-08-31T17:44:53.087Z,1.77
2022-08-31T17:47:21.280Z,1.77
2022-08-31T17:49:49.958Z,1.88
2022-08-31T17:52:17.380Z,1.45
2022-08-31T17:54:45.371Z,1.55
2022-08-31T17:57:14.600Z,1.90
2022-08-31T17:59:43.946Z,1.70
2022-08-31T18:02:14.090Z,1.50
2022-08-31T18:04:42.868Z,1.58
2022-08-31T18:07:10.364Z,1.40
2022-08-31T18:09:44.187Z,1.50
2022-08-31T18:12:11.289Z,1.48
2022-08-31T18:14:41.700Z,1.70
2022-08-31T18:17:12.642Z,1.50
2022-08-31T18:19:39.855Z,1.42
2022-08-31T18:22:07.058Z,1.55
2022-08-31T18:24:36.796Z,1.88
2022-08-31T18:27:07.133Z,1.80
2022-08-31T18:29:36.683Z,1.75
2022-08-31T18:32:05.957Z,1.77
2022-08-31T18:34:36.334Z,1.42
2022-08-31T18:37:04.280Z,1.40
2022-08-31T18:39:52.277Z,1.60
2022-08-31T18:42:39.439Z,1.40
2022-08-31T18:45:16.051Z,1.65
2022-08-31T18:47:43.510Z,1.83
2022-08-31T18:50:10.557Z,1.40
2022-08-31T18:52:40.330Z,1.27
2022-08-31T18:55:15.460Z,1.45
2022-08-31T18:57:48.505Z,1.65
2022-08-31T19:00:16.642Z,1.73
2022-08-31T19:02:44.092Z,1.40
2022-08-31T19:05:14.872Z,1.55
2022-08-31T19:07:42.391Z,1.60
2022-08-31T19:10:13.135Z,1.60
2022-08-31T19:12:42.795Z,1.40
2022-08-31T19:15:11.141Z,1.60
2022-08-31T19:17:39.516Z,1.52
2022-08-31T19:20:10.112Z,1.80
2022-08-31T19:22:37.539Z,1.58
2022-08-31T19:25:05.395Z,1.90
2022-08-31T19:27:33.716Z,1.88
2022-08-31T19:30:00.499Z,1.60
2022-08-31T19:32:27.245Z,1.38
2022-08-31T19:34:53.891Z,1.48
2022-08-31T19:37:22.800Z,1.45
2022-08-31T19:39:52.965Z,1.27
2022-08-31T19:42:19.602Z,1.88
2022-08-31T19:44:55.826Z,1.88
2022-08-31T19:47:34.879Z,1.67
2022-08-31T19:50:02.119Z,1.50
2022-08-31T19:52:28.747Z,1.67
2022-08-31T19:54:55.472Z,1.98
2022-08-31T19:57:22.562Z,1.83
2022-08-31T19:59:49.897Z,1.88
2022-08-31T20:02:17.287Z,1.88
2022-08-31T20:04:45.341Z,1.50
2022-08-31T20:07:13.594Z,1.65
2022-08-31T20:09:40.409Z,1.58
2022-08-31T20:12:07.237Z,1.65
2022-08-31T20:14:36.693Z,1.77
2022-08-31T20:17:03.917Z,1.92
2022-08-31T20:19:36.187Z,1.60
2022-08-31T20:22:09.566Z,1.95
2022-08-31T20:24:43.550Z,1.70
2022-08-31T20:27:13.794Z,1.75
2022-08-31T20:29:41.135Z,1.65
2022-08-31T20:32:08.150Z,1.67
2022-08-31T20:34:34.929Z,2.15
2022-08-31T20:37:02.571Z,1.90
2022-08-31T20:39:31.079Z,1.70
2022-08-31T20:41:59.181Z,1.58
2022-08-31T20:44:29.348Z,1.70
2022-08-31T20:47:26.756Z,2.00
2022-08-31T20:50:06.984Z,2.00
2022-08-31T20:52:35.464Z,1.70
2022-08-31T20:55:04.992Z,2.03
2022-08-31T20:57:35.677Z,1.63
2022-08-31T21:00:05.596Z,1.60
2022-08-31T21:02:34.377Z,1.95
2022-08-31T21:05:26.754Z,1.65
2022-08-31T21:07:48.916Z,1.85
2022-08-31T21:10:15.574Z,1.77
2022-08-31T21:12:42.747Z,1.95
2022-08-31T21:15:10.270Z,1.75
2022-08-31T21:17:36.978Z,1.90
2022-08-31T21:20:05.422Z,2.30
2022-08-31T21:22:35.076Z,1.98
2022-08-31T21:25:02.185Z,2.05
2022-08-31T21:27:29.991Z,1.70
2022-08-31T21:29:57.118Z,2.40
2022-08-31T21:32:23.787Z,2.00
2022-08-31T21:34:50.391Z,2.72
2022-08-31T21:37:17.031Z,2.22
2022-08-31T21:39:43.765Z,2.00
2022-08-31T21:42:10.392Z,2.40
2022-08-31T21:44:37.518Z,2.42
2022-08-31T21:47:04.592Z,2.10
2022-08-31T21:49:34.311Z,2.17
2022-08-31T21:52:01.067Z,2.22
2022-08-31T21:54:28.705Z,2.30
2022-08-31T21:57:01.780Z,2.42
2022-08-31T21:59:33.218Z,2.28
2022-08-31T22:02:06.744Z,2.30
2022-08-31T22:04:37.815Z,2.30
2022-08-31T22:07:07.814Z,2.22
2022-08-31T22:09:36.042Z,2.15
2022-08-31T22:12:06.473Z,2.40
2022-08-31T22:14:38.555Z,2.47
2022-08-31T22:17:07.047Z,2.38
2022-08-31T22:19:37.698Z,2.28
2022-08-31T22:22:11.647Z,2.42
2022-08-31T22:24:40.468Z,2.20
2022-08-31T22:27:09.852Z,2.05
2022-08-31T22:29:37.953Z,2.25
2022-08-31T22:32:11.949Z,2.63
2022-08-31T22:34:40.136Z,2.30
2022-08-31T22:37:09.140Z,2.42
2022-08-31T22:39:36.158Z,2.20
2022-08-31T22:42:02.907Z,2.30
2022-08-31T22:44:35.629Z,2.53
2022-08-31T22:47:02.989Z,2.25
2022-08-31T22:49:29.805Z,2.20
2022-08-31T22:51:56.996Z,2.13
2022-08-31T22:54:24.597Z,2.13
2022-08-31T22:56:52.208Z,2.60
2022-08-31T22:59:25.462Z,2.45
2022-08-31T23:01:55.390Z,2.65
2022-08-31T23:04:24.933Z,1.83
2022-08-31T23:06:52.762Z,2.30
2022-08-31T23:09:22.058Z,2.50
2022-08-31T23:11:51.749Z,2.35
2022-08-31T23:14:21.098Z,2.95
2022-08-31T23:16:57.206Z,2.05
2022-08-31T23:19:32.940Z,2.80
2022-08-31T23:22:00.986Z,3.10
2022-08-31T23:24:48.596Z,2.55
2022-08-31T23:27:18.774Z,2.60
2022-08-31T23:29:51.392Z,2.53
2022-08-31T23:32:20.994Z,2.75
2022-08-31T23:34:50.927Z,2.42
2022-08-31T23:37:18.439Z,2.70
2022-08-31T23:39:46.322Z,2.50
2022-08-31T23:42:16.500Z,2.60
2022-08-31T23:44:46.513Z,2.60
2022-08-31T23:47:20.274Z,2.85
2022-08-31T23:49:51.135Z,2.43
2022-08-31T23:52:21.468Z,2.47
2022-08-31T23:54:51.016Z,2.45
2022-08-31T23:57:32.018Z,2.65
